Brownstown Township, MI (48193)

6:18 PM EDT on July 27, 2016 (GMT -0400)
On The Dotte Weather Authority RC#2 (Forest Villages) | | Change Station

Elev 584 ft 42.19 °N, 83.16 °W | Updated 41 seconds ago

Clear
Clear
94.5 °F
Feels Like 100 °F
N
4.2
Wind Variable Wind from SSW

Today
High -- | Low -- °F
--% Chance of Precip.
Yesterday
High -- | Low -- °F
Precip. -- in
Pressure 29.92 in
Visibility 10.0 miles
Clouds Clear
Heat Index 100 °F
Dew Point 68 °F
Humidity 43%
Rainfall 0.00 in
Snow Depth Not available.
6:21 AM 8:56 PM
Last Quarter, 39% visible
METAR KONZ 272214Z AUTO 18009KT 10SM CLR 28/20 A2992 RMK AO2 T02840196
Pressure 29.92 in
Visibility 10.0 miles
Clouds Clear
Heat Index 100 °F
Dew Point 68 °F
Humidity 43%
Rainfall 0.00 in
Snow Depth Not available.
6:21 AM 8:56 PM
Last Quarter, 39% visible
METAR KONZ 272214Z AUTO 18009KT 10SM CLR 28/20 A2992 RMK AO2 T02840196

10-Day Weather Forecast

Almanac

Astronomy

Jul. 27, 2016 Rise Set
Actual Time
Civil Twilight
Nautical Twilight
Astronomical Twilight
Moon
Length of Visible Light
Length of Day
Tomorrow will be .
, % of the Moon is Illuminated

Today's Extremes

State Highs State Lows

Community

WunderPhotos

Upload Photos

1,927,946 photos uploaded!

WunderBlog® & News

Nearby

Air Quality

  Air Quality AQ Index Pollutant
Not available.

Snow Depth

Station Depth Elevation

Earthquake Activity

City Distance Mag. Time & Date
Minimum magnitude displayed is 2.5.

Coastal Water Temperatures

Place Temperature

Stations

Nearby Weather Stations

Station Location Temp. Windchill Dew Point Humidity Wind Precip. Elev Updated Type
                   

Watches & Warnings

There are currently no watches in effect.